Time;durP1;ratioP1;P1;durP2;ratioP2;P2;SDS_P1;SDS_P2;PMS_P1;PMS_P2;Temp;Humidity;BMP_temperature;BMP_pressure;BME280_temperature;BME280_humidity;BME280_pressure;Samples;Min_cycle;Max_cycle;Signal;HPM_P1;HPM_P2
2022/09/27 00:00:26;;;;;;;0.55;0.25;;;8.00;99.90;;;;;;6155367;23;19998;-90
2022/09/27 00:02:52;;;;;;;1.77;0.35;;;7.90;99.90;;;;;;6155247;23;20012;-89
2022/09/27 00:05:18;;;;;;;4.03;0.60;;;8.00;99.90;;;;;;6155830;23;20008;-88
2022/09/27 00:07:44;;;;;;;5.10;0.85;;;8.00;99.90;;;;;;6130502;23;20002;-88
2022/09/27 00:10:10;;;;;;;2.78;0.68;;;7.90;99.90;;;;;;6132744;23;20006;-89
2022/09/27 00:12:36;;;;;;;2.10;0.57;;;7.90;99.90;;;;;;6133895;23;20187;-88
2022/09/27 00:15:02;;;;;;;1.50;0.70;;;7.90;99.90;;;;;;6130130;23;20010;-87
2022/09/27 00:17:28;;;;;;;2.15;0.73;;;7.90;99.90;;;;;;6131481;23;20020;-90
2022/09/27 00:19:57;;;;;;;4.30;0.90;;;7.90;99.90;;;;;;6157846;23;20006;-90
2022/09/27 00:22:23;;;;;;;1.85;0.90;;;7.90;99.90;;;;;;6173703;23;20013;-89
2022/09/27 00:24:49;;;;;;;5.10;1.02;;;7.90;99.90;;;;;;6154446;23;20174;-88
2022/09/27 00:27:15;;;;;;;2.40;0.40;;;7.90;99.90;;;;;;6153484;23;19989;-86
2022/09/27 00:29:40;;;;;;;2.55;0.40;;;7.90;99.90;;;;;;6141949;23;20032;-91
2022/09/27 00:32:06;;;;;;;0.95;0.45;;;7.80;99.90;;;;;;6160102;23;20005;-91
2022/09/27 00:34:32;;;;;;;1.48;0.50;;;7.70;99.90;;;;;;6159700;23;20013;-90
2022/09/27 00:36:59;;;;;;;3.80;0.50;;;7.60;99.90;;;;;;6133488;23;20109;-90
2022/09/27 00:39:25;;;;;;;1.23;0.57;;;7.50;99.90;;;;;;6133027;23;20076;-91
2022/09/27 00:41:51;;;;;;;1.55;0.80;;;7.40;99.90;;;;;;6132478;23;20008;-91
2022/09/27 00:47:23;;;;;;;1.42;0.50;;;7.30;99.90;;;;;;6157956;23;20010;-90
2022/09/27 00:50:07;;;;;;;3.53;0.60;;;7.20;99.90;;;;;;6131295;23;20017;-90
2022/09/27 00:52:51;;;;;;;4.55;0.50;;;7.20;99.90;;;;;;6131654;23;20032;-90
2022/09/27 00:55:22;;;;;;;2.03;0.88;;;7.10;99.90;;;;;;6157577;23;20009;-88
2022/09/27 00:57:49;;;;;;;6.30;0.68;;;7.10;99.90;;;;;;6131896;23;20017;-89
2022/09/27 01:00:16;;;;;;;2.65;0.68;;;7.00;99.90;;;;;;6132534;23;20341;-90
2022/09/27 01:02:48;;;;;;;3.65;0.68;;;7.00;99.90;;;;;;6131340;23;20012;-90
2022/09/27 01:05:16;;;;;;;6.80;0.80;;;6.90;99.90;;;;;;6158474;23;20036;-89
2022/09/27 01:07:42;;;;;;;1.52;0.70;;;6.90;99.90;;;;;;6157879;23;20009;-90
2022/09/27 01:10:08;;;;;;;3.53;0.70;;;6.80;99.90;;;;;;6159063;23;20008;-89
2022/09/27 01:12:56;;;;;;;2.05;1.00;;;6.80;99.90;;;;;;6161498;23;20084;-89
2022/09/27 01:15:21;;;;;;;1.80;0.80;;;6.70;99.90;;;;;;6160224;23;20001;-89
2022/09/27 01:18:07;;;;;;;5.35;1.75;;;6.70;99.90;;;;;;6131705;23;20010;-89
2022/09/27 01:21:10;;;;;;;2.17;0.70;;;6.70;99.90;;;;;;6097339;23;20013;-89
2022/09/27 01:23:51;;;;;;;1.40;0.75;;;6.60;99.90;;;;;;6130322;23;20012;-89
2022/09/27 01:26:45;;;;;;;1.88;0.60;;;6.60;99.90;;;;;;6156671;23;20579;-89
2022/09/27 01:29:31;;;;;;;3.80;1.38;;;6.50;99.90;;;;;;6156710;23;20016;-90
2022/09/27 01:32:00;;;;;;;2.53;0.73;;;6.50;99.90;;;;;;6130743;23;20437;-89
2022/09/27 01:34:39;;;;;;;2.55;0.75;;;6.40;99.90;;;;;;6130884;23;20006;-89
2022/09/27 01:37:14;;;;;;;3.03;1.10;;;6.40;99.90;;;;;;6130979;23;20052;-90
2022/09/27 01:39:49;;;;;;;5.18;0.80;;;6.30;99.90;;;;;;6156819;23;20072;-89
2022/09/27 01:42:23;;;;;;;3.40;1.48;;;6.30;99.90;;;;;;6130540;23;20002;-89
2022/09/27 01:45:13;;;;;;;2.00;0.90;;;6.20;99.90;;;;;;6131035;23;20010;-89
2022/09/27 01:47:44;;;;;;;4.50;1.15;;;6.20;99.90;;;;;;6130911;23;20325;-90
2022/09/27 01:50:15;;;;;;;3.80;1.13;;;6.20;99.90;;;;;;6131208;23;20048;-89
2022/09/27 01:52:52;;;;;;;3.30;1.60;;;6.20;99.90;;;;;;6157579;23;20026;-89
2022/09/27 01:55:22;;;;;;;6.82;1.40;;;6.10;99.90;;;;;;6157007;23;20006;-89
2022/09/27 01:58:03;;;;;;;4.72;1.33;;;6.10;99.90;;;;;;6157148;23;20453;-89
2022/09/27 02:00:29;;;;;;;5.38;1.83;;;6.00;99.90;;;;;;6156604;23;20002;-88
2022/09/27 02:02:59;;;;;;;3.22;1.35;;;6.00;99.90;;;;;;6130589;23;20445;-89
2022/09/27 02:05:31;;;;;;;7.03;1.52;;;5.90;99.90;;;;;;6130970;23;20096;-90
2022/09/27 02:08:04;;;;;;;3.25;1.40;;;6.00;99.90;;;;;;6163165;23;20036;-89
2022/09/27 02:10:38;;;;;;;8.00;1.60;;;5.90;99.90;;;;;;6160259;23;20081;-89
2022/09/27 02:13:18;;;;;;;4.55;1.48;;;5.90;99.90;;;;;;6156999;23;20014;-90
2022/09/27 02:16:14;;;;;;;8.73;1.50;;;5.90;99.90;;;;;;6156723;23;20021;-89
2022/09/27 02:18:43;;;;;;;6.47;1.33;;;6.00;99.90;;;;;;6014492;23;20026;-90
2022/09/27 02:21:12;;;;;;;7.28;1.83;;;6.00;99.90;;;;;;6014589;23;20348;-89
2022/09/27 02:23:46;;;;;;;6.95;1.85;;;6.00;99.90;;;;;;6038320;23;20015;-89
2022/09/27 02:26:16;;;;;;;10.95;1.52;;;6.00;99.90;;;;;;6038680;23;20014;-89
2022/09/27 02:28:48;;;;;;;4.97;1.60;;;6.10;99.90;;;;;;6014526;23;20046;-90
2022/09/27 02:31:14;;;;;;;4.65;1.60;;;6.10;99.90;;;;;;6038022;23;20003;-90
2022/09/27 02:33:43;;;;;;;8.43;1.80;;;6.10;99.90;;;;;;6038442;23;20007;-89
2022/09/27 02:36:10;;;;;;;7.50;1.88;;;6.20;99.90;;;;;;6014149;23;20356;-89
2022/09/27 02:38:36;;;;;;;4.40;1.20;;;6.20;99.90;;;;;;6037561;23;20162;-89
2022/09/27 02:41:02;;;;;;;8.13;1.45;;;6.20;99.90;;;;;;6013402;23;20004;-89
2022/09/27 02:43:31;;;;;;;10.65;1.55;;;6.30;99.90;;;;;;6013698;23;20011;-89
2022/09/27 02:46:34;;;;;;;12.43;1.88;;;6.30;99.90;;;;;;6013129;23;20090;-88
2022/09/27 02:49:19;;;;;;;6.20;1.20;;;6.30;99.90;;;;;;6013729;23;20019;-88
2022/09/27 02:51:47;;;;;;;5.57;1.60;;;6.30;99.90;;;;;;6014296;23;20059;-88
2022/09/27 02:54:16;;;;;;;7.40;1.63;;;6.30;99.90;;;;;;6013681;23;20035;-87
2022/09/27 02:57:07;;;;;;;10.05;1.65;;;6.30;99.90;;;;;;6120573;23;20088;-89
2022/09/27 02:59:48;;;;;;;9.60;1.60;;;6.30;99.90;;;;;;6130859;23;20065;-89
2022/09/27 03:02:36;;;;;;;10.45;2.30;;;6.30;99.90;;;;;;6156010;23;20033;-89
2022/09/27 03:05:13;;;;;;;7.75;1.67;;;6.30;99.90;;;;;;6157633;23;20315;-89
2022/09/27 03:07:39;;;;;;;12.57;1.75;;;6.30;99.90;;;;;;6156439;23;20052;-90
2022/09/27 03:10:06;;;;;;;10.25;1.38;;;6.30;99.90;;;;;;6131691;23;20017;-88
2022/09/27 03:12:32;;;;;;;9.05;1.67;;;6.30;99.90;;;;;;6131609;23;20044;-88
2022/09/27 03:14:59;;;;;;;12.05;1.33;;;6.40;99.90;;;;;;6130394;23;20096;-89
2022/09/27 03:17:25;;;;;;;14.60;1.70;;;6.30;99.90;;;;;;6155464;23;20001;-89
2022/09/27 03:19:51;;;;;;;6.70;1.27;;;6.40;99.90;;;;;;6129427;23;20369;-88
2022/09/27 03:22:17;;;;;;;4.97;1.23;;;6.30;99.90;;;;;;6129724;23;20008;-88
2022/09/27 03:24:43;;;;;;;7.57;1.70;;;6.40;99.90;;;;;;6129373;23;20017;-89
2022/09/27 03:27:09;;;;;;;7.90;1.30;;;6.40;99.90;;;;;;6155740;23;20004;-90
2022/09/27 03:29:35;;;;;;;7.38;1.45;;;6.40;99.90;;;;;;6137295;23;20016;-90
2022/09/27 03:32:02;;;;;;;4.80;1.27;;;6.40;99.90;;;;;;6155756;23;19998;-89
2022/09/27 03:34:28;;;;;;;19.63;2.28;;;6.40;99.90;;;;;;6130306;23;20033;-88
2022/09/27 03:36:54;;;;;;;8.30;1.55;;;6.40;99.90;;;;;;6130359;23;20012;-89
2022/09/27 03:39:20;;;;;;;12.02;1.90;;;6.40;99.90;;;;;;6156176;23;20013;-88
2022/09/27 03:41:46;;;;;;;9.63;1.70;;;6.40;99.90;;;;;;6130003;23;20008;-89
2022/09/27 03:44:11;;;;;;;7.80;1.25;;;6.50;99.90;;;;;;6155787;23;20008;-89
2022/09/27 03:46:37;;;;;;;12.82;1.60;;;6.40;99.90;;;;;;6129694;23;20546;-89
2022/09/27 03:49:03;;;;;;;11.35;1.90;;;6.50;99.90;;;;;;6129713;23;20052;-88
2022/09/27 03:51:28;;;;;;;15.38;1.38;;;6.50;99.90;;;;;;6130633;23;20010;-90
2022/09/27 03:53:54;;;;;;;14.45;1.90;;;6.60;99.90;;;;;;6130755;23;20101;-89
2022/09/27 03:56:19;;;;;;;10.70;1.60;;;6.60;99.90;;;;;;6132061;23;20009;-89
2022/09/27 03:58:45;;;;;;;17.95;2.50;;;6.60;99.90;;;;;;6131708;23;20124;-89
2022/09/27 04:01:11;;;;;;;13.52;1.65;;;6.60;99.90;;;;;;6157430;23;19993;-90
2022/09/27 04:03:37;;;;;;;10.82;1.90;;;6.60;99.90;;;;;;6131782;23;20064;-89
2022/09/27 04:06:03;;;;;;;17.60;1.58;;;6.60;99.90;;;;;;6158093;23;20012;-88
2022/09/27 04:08:29;;;;;;;12.05;1.50;;;6.60;99.90;;;;;;6130745;23;20098;-88
2022/09/27 04:10:55;;;;;;;20.92;2.92;;;6.60;99.90;;;;;;6157313;23;20005;-88
2022/09/27 04:13:21;;;;;;;5.43;1.42;;;6.60;99.90;;;;;;6131277;23;20009;-90
2022/09/27 04:15:47;;;;;;;13.18;1.73;;;6.60;99.90;;;;;;6156285;23;20029;-88
2022/09/27 04:18:13;;;;;;;8.75;1.60;;;6.60;99.90;;;;;;6157180;23;20333;-89
2022/09/27 04:20:39;;;;;;;9.77;1.60;;;6.60;99.90;;;;;;6131623;23;20084;-90
2022/09/27 04:23:05;;;;;;;13.00;1.73;;;6.60;99.90;;;;;;6131292;23;20006;-88
2022/09/27 04:25:33;;;;;;;10.50;1.40;;;6.60;99.90;;;;;;6131828;23;20005;-89
2022/09/27 04:28:00;;;;;;;14.98;1.83;;;6.60;99.90;;;;;;6157629;23;20004;-88
2022/09/27 04:30:28;;;;;;;8.57;1.63;;;6.60;99.90;;;;;;6155822;23;19997;-89
2022/09/27 04:32:54;;;;;;;13.77;1.70;;;6.60;99.90;;;;;;6157450;23;20012;-90
2022/09/27 04:38:04;;;;;;;18.67;2.63;;;6.60;99.90;;;;;;6134433;23;20100;-91
2022/09/27 04:40:33;;;;;;;11.75;1.75;;;6.50;99.90;;;;;;6130004;23;20037;-89
2022/09/27 04:42:58;;;;;;;17.13;2.00;;;6.60;99.90;;;;;;6129715;23;20064;-90
2022/09/27 04:45:24;;;;;;;14.07;1.63;;;6.60;99.90;;;;;;6155367;23;20005;-90
2022/09/27 04:47:50;;;;;;;14.73;2.40;;;6.50;99.90;;;;;;6156479;23;20009;-89
2022/09/27 04:50:17;;;;;;;13.27;1.45;;;6.60;99.90;;;;;;6130143;23;20018;-89
2022/09/27 04:52:43;;;;;;;15.75;2.53;;;6.50;99.90;;;;;;6156415;23;20002;-88
2022/09/27 04:55:10;;;;;;;15.80;2.10;;;6.60;99.90;;;;;;6156341;23;20056;-88
2022/09/27 04:57:36;;;;;;;15.52;3.25;;;6.50;99.90;;;;;;6130525;23;20022;-88
2022/09/27 05:00:03;;;;;;;11.73;2.20;;;6.60;99.90;;;;;;6156338;23;20389;-88
2022/09/27 05:02:30;;;;;;;18.40;2.80;;;6.60;99.90;;;;;;6131039;23;20002;-88
2022/09/27 05:04:58;;;;;;;10.93;2.80;;;6.60;99.90;;;;;;6131441;23;20025;-87
2022/09/27 05:07:24;;;;;;;13.85;3.22;;;6.70;99.90;;;;;;6132555;23;20081;-90
2022/09/27 05:09:50;;;;;;;10.35;2.60;;;6.70;99.90;;;;;;6163422;23;20013;-88
2022/09/27 05:12:16;;;;;;;9.02;2.95;;;6.80;99.90;;;;;;6163077;23;19993;-89
2022/09/27 05:14:42;;;;;;;12.50;2.30;;;6.80;99.90;;;;;;6159425;23;20009;-89
2022/09/27 05:17:08;;;;;;;12.07;3.53;;;6.80;99.90;;;;;;6163000;23;20310;-88
2022/09/27 05:19:34;;;;;;;14.52;2.63;;;6.90;99.90;;;;;;6135232;23;20013;-89
2022/09/27 05:22:00;;;;;;;14.43;2.22;;;6.90;99.90;;;;;;6162229;23;20044;-90
2022/09/27 05:24:31;;;;;;;8.77;1.77;;;6.90;99.90;;;;;;6164781;23;20005;-88
2022/09/27 05:26:58;;;;;;;13.98;2.22;;;7.00;99.90;;;;;;6183261;23;20001;-88
2022/09/27 05:29:23;;;;;;;10.27;2.20;;;7.00;99.90;;;;;;6154461;23;19989;-89
2022/09/27 05:31:49;;;;;;;12.40;2.53;;;7.00;99.90;;;;;;6147770;23;20040;-90
2022/09/27 05:34:18;;;;;;;10.68;2.05;;;7.10;99.90;;;;;;6147168;23;20005;-88
2022/09/27 05:36:46;;;;;;;13.50;1.98;;;7.10;99.90;;;;;;6141150;23;20013;-89
2022/09/27 05:39:12;;;;;;;7.60;2.22;;;7.20;99.90;;;;;;6161024;23;20037;-90
2022/09/27 05:41:39;;;;;;;15.88;1.95;;;7.20;99.90;;;;;;6134012;23;20010;-90
2022/09/27 05:44:05;;;;;;;8.63;1.77;;;7.20;99.90;;;;;;6133913;23;20009;-88
2022/09/27 05:46:31;;;;;;;13.20;2.10;;;7.20;99.90;;;;;;6159197;23;20354;-89
2022/09/27 05:48:56;;;;;;;8.95;1.63;;;7.20;99.90;;;;;;6158033;23;20429;-89
2022/09/27 05:51:22;;;;;;;16.90;1.70;;;7.20;99.90;;;;;;6132081;23;20041;-88
2022/09/27 05:53:48;;;;;;;14.65;3.85;;;7.20;99.90;;;;;;6133082;23;20021;-88
2022/09/27 05:56:13;;;;;;;12.20;2.33;;;7.20;99.90;;;;;;6157043;23;20452;-89
2022/09/27 05:58:39;;;;;;;3.60;1.27;;;7.20;99.90;;;;;;6131996;23;20013;-88
2022/09/27 06:01:09;;;;;;;10.93;1.40;;;7.30;99.90;;;;;;6132529;23;20513;-89
2022/09/27 06:03:35;;;;;;;10.57;1.80;;;7.30;99.90;;;;;;6132364;23;20125;-90
2022/09/27 06:06:05;;;;;;;6.40;1.40;;;7.30;99.90;;;;;;6132420;23;20009;-90
2022/09/27 06:08:35;;;;;;;9.70;1.50;;;7.30;99.90;;;;;;6132442;23;20016;-89
2022/09/27 06:11:03;;;;;;;13.55;3.20;;;7.30;99.90;;;;;;6157384;23;20384;-89
2022/09/27 06:13:29;;;;;;;7.30;1.30;;;7.30;99.90;;;;;;6157372;23;20005;-88
2022/09/27 06:15:55;;;;;;;10.90;1.65;;;7.30;99.90;;;;;;6156050;23;20029;-87
2022/09/27 06:18:20;;;;;;;6.28;1.10;;;7.30;99.90;;;;;;6129882;23;20116;-89
2022/09/27 06:20:46;;;;;;;6.35;1.88;;;7.30;99.90;;;;;;6156546;23;20036;-87
2022/09/27 06:23:17;;;;;;;8.30;1.40;;;7.30;99.90;;;;;;6130856;23;20496;-88
2022/09/27 06:25:43;;;;;;;;;;;7.40;99.90;;;;;;6130868;23;20460;-87
2022/09/27 06:28:09;;;;;;;7.60;1.10;;;7.40;99.90;;;;;;6130399;23;19908;-88
2022/09/27 06:30:39;;;;;;;7.85;1.45;;;7.40;99.90;;;;;;6129521;23;20028;-87
2022/09/27 06:33:05;;;;;;;9.02;1.40;;;7.50;99.90;;;;;;6155458;23;19997;-88
2022/09/27 06:35:33;;;;;;;7.18;1.30;;;7.50;99.90;;;;;;6129017;23;20006;-88
2022/09/27 06:38:05;;;;;;;7.68;1.17;;;7.60;99.90;;;;;;6154626;23;20549;-87
2022/09/27 06:40:31;;;;;;;5.35;1.00;;;7.60;99.90;;;;;;6130171;23;20010;-87
2022/09/27 06:43:11;;;;;;;5.95;1.20;;;7.60;99.90;;;;;;6156535;23;20016;-88
2022/09/27 06:45:38;;;;;;;5.05;1.20;;;7.70;99.90;;;;;;6155414;23;20002;-86
2022/09/27 06:48:05;;;;;;;7.97;1.20;;;7.70;99.90;;;;;;6130648;23;20005;-86
2022/09/27 06:50:35;;;;;;;6.47;1.65;;;7.80;99.90;;;;;;6156185;23;20025;-86
2022/09/27 06:53:01;;;;;;;9.57;1.20;;;7.80;99.90;;;;;;6156520;23;20006;-89
2022/09/27 06:55:26;;;;;;;9.68;1.50;;;7.90;99.90;;;;;;6129844;23;20009;-88
2022/09/27 07:00:41;;;;;;;11.23;1.92;;;7.90;99.90;;;;;;6156480;23;20013;-89
2022/09/27 07:03:13;;;;;;;11.98;1.85;;;8.00;99.90;;;;;;6130548;23;20584;-88
2022/09/27 07:05:41;;;;;;;8.18;1.20;;;8.10;99.90;;;;;;6130181;23;20048;-89
2022/09/27 07:08:10;;;;;;;9.02;1.60;;;8.10;99.90;;;;;;6131038;23;20009;-88
2022/09/27 07:10:37;;;;;;;7.55;1.15;;;8.10;99.90;;;;;;6130282;23;20503;-89
2022/09/27 07:13:04;;;;;;;4.75;1.20;;;8.20;99.90;;;;;;6156316;23;20466;-88
2022/09/27 07:15:35;;;;;;;12.40;1.48;;;8.20;99.90;;;;;;6156508;23;19998;-90
2022/09/27 07:18:02;;;;;;;6.78;1.50;;;8.30;99.90;;;;;;6128747;23;20013;-89
2022/09/27 07:20:28;;;;;;;10.35;1.67;;;8.30;99.90;;;;;;6129939;23;20009;-88
2022/09/27 07:22:54;;;;;;;7.80;1.40;;;8.40;99.90;;;;;;6130327;23;20021;-87
2022/09/27 07:25:21;;;;;;;7.95;1.67;;;8.40;99.90;;;;;;6128388;23;20093;-87
2022/09/27 07:27:47;;;;;;;8.52;1.60;;;8.50;99.90;;;;;;6129083;23;20010;-88
2022/09/27 07:30:13;;;;;;;6.80;1.35;;;8.50;99.90;;;;;;6129290;23;20516;-86
2022/09/27 07:32:39;;;;;;;6.32;1.38;;;8.50;99.90;;;;;;6130325;23;20035;-89
2022/09/27 07:35:07;;;;;;;8.73;1.33;;;8.50;99.90;;;;;;6129957;23;20002;-87
2022/09/27 07:37:34;;;;;;;6.47;1.38;;;8.60;99.90;;;;;;6129370;23;20017;-89
2022/09/27 07:40:01;;;;;;;6.45;1.55;;;8.60;99.90;;;;;;6128474;23;20282;-87
2022/09/27 07:42:28;;;;;;;11.18;1.63;;;8.60;99.90;;;;;;6105458;23;20010;-88
2022/09/27 07:44:57;;;;;;;7.45;1.60;;;8.70;99.90;;;;;;6156073;23;20061;-88
2022/09/27 07:47:23;;;;;;;11.85;1.40;;;8.70;99.90;;;;;;6129603;23;20547;-87
2022/09/27 07:49:50;;;;;;;9.32;2.20;;;8.70;99.90;;;;;;6129544;23;20033;-88
2022/09/27 07:52:19;;;;;;;16.05;2.65;;;8.80;99.90;;;;;;6151534;23;20022;-91
2022/09/27 07:54:46;;;;;;;7.93;1.58;;;8.90;99.90;;;;;;6155644;23;20029;-90
2022/09/27 07:57:12;;;;;;;9.95;1.55;;;9.00;99.90;;;;;;6156041;23;20017;-91
2022/09/27 07:59:38;;;;;;;16.00;1.73;;;9.00;99.90;;;;;;6156393;23;20336;-90
2022/09/27 08:02:04;;;;;;;9.52;1.45;;;9.10;99.90;;;;;;6155554;23;20013;-89
2022/09/27 08:04:29;;;;;;;7.25;1.10;;;9.10;99.90;;;;;;6155993;23;19998;-89
2022/09/27 08:06:55;;;;;;;8.32;1.45;;;9.20;99.90;;;;;;6129340;23;20032;-90
2022/09/27 08:09:21;;;;;;;10.82;2.53;;;9.30;99.90;;;;;;6129068;23;20425;-91
2022/09/27 08:11:47;;;;;;;9.55;1.42;;;9.40;99.90;;;;;;6155239;23;20480;-91
2022/09/27 08:14:13;;;;;;;9.25;1.45;;;9.50;99.90;;;;;;6129430;23;20424;-90
2022/09/27 08:16:40;;;;;;;11.57;1.67;;;9.60;99.90;;;;;;6154983;23;20004;-90
2022/09/27 08:19:07;;;;;;;9.40;2.38;;;9.60;99.90;;;;;;6154962;23;20453;-89
2022/09/27 08:21:34;;;;;;;7.72;1.48;;;9.60;99.90;;;;;;6155231;23;20002;-89
2022/09/27 08:24:00;;;;;;;11.80;1.85;;;9.70;99.90;;;;;;6155384;23;20001;-90
2022/09/27 08:26:29;;;;;;;15.02;1.98;;;9.70;99.90;;;;;;6129718;23;20096;-90
2022/09/27 08:28:54;;;;;;;10.13;1.40;;;9.80;99.90;;;;;;6129454;23;20097;-90
2022/09/27 08:31:20;;;;;;;6.90;2.85;;;9.90;99.90;;;;;;6156065;23;20032;-90
2022/09/27 08:33:50;;;;;;;6.18;1.13;;;10.00;99.90;;;;;;6152925;23;20009;-90
2022/09/27 08:36:16;;;;;;;3.93;1.30;;;10.00;99.90;;;;;;6127867;23;20009;-89
2022/09/27 08:38:42;;;;;;;4.20;1.15;;;10.10;99.90;;;;;;6155455;23;20441;-90
2022/09/27 08:41:32;;;;;;;9.60;2.00;;;10.10;99.90;;;;;;6156335;23;20002;-89
2022/09/27 08:44:27;;;;;;;9.05;1.45;;;10.20;99.90;;;;;;6131834;23;20009;-90
2022/09/27 08:47:05;;;;;;;7.05;0.98;;;10.20;99.90;;;;;;6158452;23;20001;-91
2022/09/27 08:49:41;;;;;;;11.45;1.20;;;10.20;99.90;;;;;;6131563;23;20049;-91
2022/09/27 08:52:17;;;;;;;9.05;3.35;;;10.20;99.90;;;;;;6131659;23;20016;-91
2022/09/27 08:54:44;;;;;;;10.50;1.10;;;10.20;99.90;;;;;;6139354;23;20045;-89
2022/09/27 08:57:16;;;;;;;6.05;1.50;;;10.30;99.90;;;;;;6140236;23;20009;-91
2022/09/27 09:00:12;;;;;;;6.43;1.52;;;10.30;99.90;;;;;;6160114;23;20010;-89
2022/09/27 09:02:40;;;;;;;10.88;1.27;;;10.30;99.90;;;;;;6133112;23;20132;-89
2022/09/27 09:05:15;;;;;;;12.73;1.80;;;10.40;99.90;;;;;;6132078;23;20014;-89
2022/09/27 09:07:58;;;;;;;9.18;1.92;;;10.40;99.90;;;;;;6130457;23;20009;-89
2022/09/27 09:13:45;;;;;;;8.43;1.20;;;10.50;99.90;;;;;;6157264;23;20095;-89
2022/09/27 09:16:41;;;;;;;13.23;1.65;;;10.60;99.90;;;;;;6156659;23;20103;-89
2022/09/27 09:19:15;;;;;;;3.90;0.93;;;10.80;99.90;;;;;;6131440;23;20021;-89
2022/09/27 09:21:47;;;;;;;14.07;1.58;;;10.90;99.90;;;;;;6156691;23;20060;-89
2022/09/27 09:24:43;;;;;;;7.10;1.15;;;11.00;99.90;;;;;;6156708;23;20028;-91
2022/09/27 09:27:23;;;;;;;4.72;1.23;;;11.00;99.90;;;;;;6130900;23;20005;-89
2022/09/27 09:30:04;;;;;;;10.18;1.02;;;11.20;99.90;;;;;;6156402;23;20005;-90
2022/09/27 09:32:56;;;;;;;;;;;11.30;99.90;;;;;;6156601;23;20020;-89
2022/09/27 09:35:28;;;;;;;7.22;1.40;;;11.40;99.90;;;;;;6075225;23;19928;-89
2022/09/27 09:37:58;;;;;;;4.78;1.55;;;11.60;99.90;;;;;;6129794;23;20430;-90
2022/09/27 09:40:48;;;;;;;9.13;2.67;;;11.70;99.90;;;;;;6130763;23;20353;-90
2022/09/27 09:43:34;;;;;;;8.80;1.08;;;11.90;99.90;;;;;;6156704;23;20028;-89
2022/09/27 09:46:08;;;;;;;9.55;1.25;;;12.10;99.90;;;;;;6130517;23;20017;-89
2022/09/27 09:48:48;;;;;;;6.38;1.35;;;12.30;99.90;;;;;;6130614;23;20013;-89
2022/09/27 09:51:34;;;;;;;8.50;1.08;;;12.40;99.90;;;;;;6156684;23;20076;-90
2022/09/27 09:54:23;;;;;;;5.55;1.10;;;12.50;98.10;;;;;;6156892;23;20002;-89
2022/09/27 09:56:59;;;;;;;6.20;1.10;;;12.60;96.40;;;;;;6157361;23;20002;-88
2022/09/27 09:59:34;;;;;;;7.75;1.42;;;12.70;95.80;;;;;;6131138;23;20020;-90
2022/09/27 10:02:20;;;;;;;8.13;1.20;;;12.90;95.20;;;;;;6156060;23;20010;-92
2022/09/27 10:04:46;;;;;;;6.32;0.90;;;13.00;94.70;;;;;;6158477;23;20080;-90
2022/09/27 10:07:22;;;;;;;6.47;0.93;;;13.30;94.20;;;;;;6134174;23;20002;-91
2022/09/27 10:09:49;;;;;;;6.25;1.25;;;13.40;93.00;;;;;;6135008;23;20010;-91
2022/09/27 10:12:15;;;;;;;4.75;0.93;;;13.60;92.20;;;;;;6161412;23;20482;-92
2022/09/27 10:14:44;;;;;;;2.53;0.68;;;13.80;91.70;;;;;;6136892;23;20033;-91
2022/09/27 10:17:16;;;;;;;7.03;1.00;;;14.10;90.50;;;;;;6160677;23;20013;-90
2022/09/27 10:19:44;;;;;;;2.20;0.60;;;14.20;89.20;;;;;;6162690;23;20047;-90
2022/09/27 10:22:15;;;;;;;8.07;0.90;;;14.30;86.20;;;;;;6134184;23;20069;-91
2022/09/27 10:25:00;;;;;;;7.65;1.15;;;14.40;84.80;;;;;;6167456;23;20016;-91
2022/09/27 10:27:27;;;;;;;7.50;1.45;;;14.40;83.10;;;;;;6174154;23;19994;-92
2022/09/27 10:29:58;;;;;;;5.63;0.90;;;14.60;83.40;;;;;;6174876;23;20012;-91
2022/09/27 10:32:35;;;;;;;5.65;0.77;;;14.90;82.40;;;;;;6177578;23;20018;-92
2022/09/27 10:35:44;;;;;;;6.07;1.27;;;15.10;81.10;;;;;;6153562;23;20116;-89
2022/09/27 10:38:16;;;;;;;7.78;1.00;;;15.30;79.70;;;;;;6044585;23;20011;-90
2022/09/27 10:40:43;;;;;;;4.53;0.88;;;15.40;77.90;;;;;;6043859;23;20015;-91
2022/09/27 10:43:24;;;;;;;2.58;0.82;;;15.30;78.00;;;;;;6018554;23;20003;-92
2022/09/27 10:45:58;;;;;;;;;;;15.20;77.50;;;;;;6042406;23;20059;-92
2022/09/27 10:48:24;;;;;;;1.13;0.50;;;15.10;77.10;;;;;;6017083;23;19936;-91
2022/09/27 10:51:00;;;;;;;6.30;1.00;;;15.00;77.10;;;;;;6015594;23;20015;-90
2022/09/27 10:53:28;;;;;;;2.40;1.25;;;14.90;77.10;;;;;;6031527;23;20014;-90
2022/09/27 10:55:55;;;;;;;7.93;1.10;;;14.90;77.30;;;;;;6041543;23;20007;-91
2022/09/27 10:58:30;;;;;;;7.10;1.00;;;14.90;76.50;;;;;;6014976;23;20023;-91
2022/09/27 11:01:02;;;;;;;7.18;0.85;;;14.90;76.30;;;;;;6015147;23;20021;-92
2022/09/27 11:03:47;;;;;;;6.00;1.10;;;14.90;76.10;;;;;;6014087;23;20011;-91
2022/09/27 11:06:24;;;;;;;5.60;1.00;;;14.70;75.90;;;;;;6038891;23;20003;-91
2022/09/27 11:08:51;;;;;;;3.08;0.90;;;14.50;76.20;;;;;;6072536;23;20128;-90
2022/09/27 11:11:18;;;;;;;7.18;1.05;;;14.50;76.70;;;;;;6130736;23;20329;-92
2022/09/27 11:14:06;;;;;;;6.30;0.90;;;14.40;76.90;;;;;;6156661;23;20013;-91
2022/09/27 11:16:57;;;;;;;9.05;1.60;;;14.50;77.40;;;;;;6131013;23;20009;-92
2022/09/27 11:19:41;;;;;;;5.88;0.77;;;14.60;77.20;;;;;;6157247;23;20017;-91
2022/09/27 11:22:44;;;;;;;5.88;1.15;;;14.60;76.90;;;;;;6127705;23;20139;-91
2022/09/27 11:25:28;;;;;;;3.65;1.00;;;14.80;76.40;;;;;;6155554;23;20005;-91
2022/09/27 11:28:23;;;;;;;2.05;0.93;;;14.90;76.00;;;;;;6156183;23;20036;-91
2022/09/27 11:31:13;;;;;;;3.53;0.80;;;15.20;75.90;;;;;;6153750;23;20001;-90
2022/09/27 11:33:58;;;;;;;3.97;0.80;;;15.60;75.50;;;;;;6130025;23;20430;-90
2022/09/27 11:36:54;;;;;;;6.18;1.00;;;16.00;73.50;;;;;;6129361;23;20033;-91
2022/09/27 11:39:36;;;;;;;7.32;2.03;;;16.30;72.60;;;;;;6130561;23;20306;-91
2022/09/27 11:42:24;;;;;;;4.63;0.98;;;16.40;72.10;;;;;;6155144;23;20060;-90
2022/09/27 11:45:19;;;;;;;5.00;1.02;;;16.60;71.80;;;;;;6128959;23;20010;-91
2022/09/27 11:48:22;;;;;;;2.97;0.80;;;16.60;70.40;;;;;;6129977;23;20654;-90
2022/09/27 11:50:50;;;;;;;6.10;1.80;;;16.40;69.80;;;;;;6130085;23;20445;-91
2022/09/27 11:53:25;;;;;;;3.92;1.25;;;16.20;69.90;;;;;;6154554;23;19998;-91
2022/09/27 11:56:05;;;;;;;3.50;1.10;;;16.30;70.50;;;;;;6129745;23;20453;-91
2022/09/27 11:58:43;;;;;;;2.72;0.85;;;16.40;70.30;;;;;;6129793;23;20100;-89
2022/09/27 12:01:24;;;;;;;2.22;0.57;;;16.40;68.80;;;;;;6129600;23;20033;-90
2022/09/27 12:04:08;;;;;;;2.42;0.60;;;16.20;68.80;;;;;;6128789;23;20120;-89
2022/09/27 12:06:40;;;;;;;2.95;0.80;;;16.10;68.80;;;;;;6154833;23;19997;-90
2022/09/27 12:09:20;;;;;;;4.10;0.60;;;16.10;69.40;;;;;;6155207;23;20006;-90
2022/09/27 12:11:51;;;;;;;7.22;0.95;;;16.30;69.30;;;;;;6159773;23;20008;-89
2022/09/27 12:14:16;;;;;;;;;;;16.50;69.00;;;;;;6160032;23;20032;-91
2022/09/27 12:16:44;;;;;;;5.68;0.80;;;16.50;68.60;;;;;;6133427;23;19905;-89
2022/09/27 12:19:34;;;;;;;3.70;0.88;;;16.50;68.40;;;;;;6132753;23;20341;-90
2022/09/27 12:22:03;;;;;;;2.25;0.70;;;16.40;68.20;;;;;;6131120;23;20002;-89
2022/09/27 12:24:29;;;;;;;3.33;0.95;;;16.40;68.20;;;;;;6157430;23;20005;-89
2022/09/27 12:27:08;;;;;;;1.52;0.55;;;16.50;67.70;;;;;;6131786;23;20102;-89
2022/09/27 12:29:38;;;;;;;2.63;0.50;;;16.50;66.80;;;;;;6131716;23;20016;-90
2022/09/27 12:32:09;;;;;;;3.88;1.60;;;16.70;66.70;;;;;;6157265;23;20009;-89
2022/09/27 12:34:47;;;;;;;3.13;0.70;;;17.00;66.80;;;;;;6131568;23;20436;-90
2022/09/27 12:37:22;;;;;;;4.78;1.13;;;17.40;66.10;;;;;;6157195;23;20038;-89
2022/09/27 12:39:53;;;;;;;4.28;0.80;;;17.80;64.00;;;;;;6132069;23;20025;-91
2022/09/27 12:42:30;;;;;;;7.28;0.82;;;17.90;62.90;;;;;;6157036;23;19998;-91
2022/09/27 12:44:56;;;;;;;4.63;0.98;;;17.80;62.60;;;;;;6157677;23;20005;-90
2022/09/27 12:47:46;;;;;;;2.40;0.75;;;17.60;61.90;;;;;;6157855;23;19997;-91
2022/09/27 12:50:14;;;;;;;4.53;1.00;;;17.30;62.20;;;;;;6133154;23;20056;-89
2022/09/27 12:52:50;;;;;;;5.90;0.77;;;17.30;63.00;;;;;;6131798;23;20006;-90
2022/09/27 12:55:42;;;;;;;3.47;0.90;;;17.60;62.80;;;;;;6132077;23;20009;-90
2022/09/27 12:58:16;;;;;;;6.18;0.90;;;17.70;62.50;;;;;;6131423;23;20021;-89
2022/09/27 13:00:52;;;;;;;6.43;1.17;;;17.90;62.80;;;;;;6157270;23;19998;-90
2022/09/27 13:03:27;;;;;;;3.38;0.80;;;18.20;62.60;;;;;;6130735;23;20013;-90
2022/09/27 13:06:12;;;;;;;4.13;0.77;;;18.10;62.20;;;;;;6131033;23;20033;-89
2022/09/27 13:09:02;;;;;;;4.80;0.88;;;18.10;62.80;;;;;;6156459;23;20013;-89
2022/09/27 13:12:00;;;;;;;6.50;1.05;;;17.90;62.80;;;;;;6156493;23;20524;-91
2022/09/27 13:14:30;;;;;;;7.43;0.85;;;17.40;62.50;;;;;;6156825;23;20025;-92
2022/09/27 13:16:55;;;;;;;4.95;0.70;;;17.00;63.40;;;;;;6131275;23;20324;-92
2022/09/27 13:19:44;;;;;;;4.60;1.00;;;16.60;64.10;;;;;;6157105;23;20040;-90
2022/09/27 13:22:36;;;;;;;5.10;0.75;;;16.20;64.80;;;;;;6130456;23;20032;-90
2022/09/27 13:25:22;;;;;;;8.93;0.80;;;16.00;65.70;;;;;;6130445;23;20005;-89
2022/09/27 13:27:48;;;;;;;5.13;0.65;;;15.80;66.40;;;;;;6130635;23;20005;-88
2022/09/27 13:30:15;;;;;;;5.90;0.93;;;15.70;67.20;;;;;;6158615;23;20073;-89